Livingston, New York
Current Conditions -  °F | °C
As of 12:54 AM on Monday 26 Jan 2015 (Local Time) from KPSF Reporting Station
Clear Clear  
Wind Chill:   Ceiling: Unl
Heat Index:   Visibility: 10mi
Dew Point:   Wind: 5mph
Humidity: 67%   Direction: 340°NNW
Pressure: 29.96"   Gusts: NA
Location:  42.14°N, 73.78°W
Report Text: KPSF 260554Z AUTO 34004KT 10SM CLR M13/M18 A2996 RMK AO2 SLP168 T11281178 11089 21128 50006
Loading
Personal Weather Stations






























Interactive Weather Map New forecast layout! Learn more

10-Day Weather Forecast

Advertisements
Track Severe Weather on mobile